sensor_id;sensor_type;location;lat;lon;timestamp;P1;durP1;ratioP1;P2;durP2;ratioP2
22359;SDS011;11347;52.030;4.690;2022-08-01T00:00:23;2.67;;;2.00;;
22359;SDS011;11347;52.030;4.690;2022-08-01T00:02:49;3.27;;;2.03;;
22359;SDS011;11347;52.030;4.690;2022-08-01T00:05:14;3.80;;;2.07;;
22359;SDS011;11347;52.030;4.690;2022-08-01T00:07:40;4.97;;;2.27;;
22359;SDS011;11347;52.030;4.690;2022-08-01T00:10:07;3.10;;;2.10;;
22359;SDS011;11347;52.030;4.690;2022-08-01T00:12:36;3.90;;;2.47;;
22359;SDS011;11347;52.030;4.690;2022-08-01T00:15:02;4.93;;;2.23;;
22359;SDS011;11347;52.030;4.690;2022-08-01T00:17:29;2.40;;;2.00;;
22359;SDS011;11347;52.030;4.690;2022-08-01T00:19:54;2.93;;;2.23;;
22359;SDS011;11347;52.030;4.690;2022-08-01T00:22:20;2.93;;;2.20;;
22359;SDS011;11347;52.030;4.690;2022-08-01T00:24:45;3.20;;;2.40;;
22359;SDS011;11347;52.030;4.690;2022-08-01T00:27:11;2.90;;;2.30;;
22359;SDS011;11347;52.030;4.690;2022-08-01T00:29:36;4.27;;;2.20;;
22359;SDS011;11347;52.030;4.690;2022-08-01T00:32:02;5.70;;;2.53;;
22359;SDS011;11347;52.030;4.690;2022-08-01T00:34:27;3.83;;;2.60;;
22359;SDS011;11347;52.030;4.690;2022-08-01T00:36:53;3.30;;;2.40;;
22359;SDS011;11347;52.030;4.690;2022-08-01T00:39:19;6.53;;;2.80;;
22359;SDS011;11347;52.030;4.690;2022-08-01T00:41:44;5.63;;;2.60;;
22359;SDS011;11347;52.030;4.690;2022-08-01T00:44:10;3.77;;;2.47;;
22359;SDS011;11347;52.030;4.690;2022-08-01T00:46:35;4.67;;;2.97;;
22359;SDS011;11347;52.030;4.690;2022-08-01T00:49:01;3.30;;;2.47;;
22359;SDS011;11347;52.030;4.690;2022-08-01T00:51:27;4.27;;;2.80;;
22359;SDS011;11347;52.030;4.690;2022-08-01T00:53:54;5.07;;;2.90;;
22359;SDS011;11347;52.030;4.690;2022-08-01T00:56:20;7.40;;;2.80;;
22359;SDS011;11347;52.030;4.690;2022-08-01T00:58:46;4.10;;;2.63;;
22359;SDS011;11347;52.030;4.690;2022-08-01T01:01:12;4.37;;;2.57;;
22359;SDS011;11347;52.030;4.690;2022-08-01T01:03:38;4.03;;;3.10;;
22359;SDS011;11347;52.030;4.690;2022-08-01T01:15:06;4.40;;;2.90;;
22359;SDS011;11347;52.030;4.690;2022-08-01T01:17:21;4.77;;;2.60;;
22359;SDS011;11347;52.030;4.690;2022-08-01T01:19:54;3.50;;;2.70;;
22359;SDS011;11347;52.030;4.690;2022-08-01T01:25:02;4.73;;;2.87;;
22359;SDS011;11347;52.030;4.690;2022-08-01T01:27:49;5.60;;;2.90;;
22359;SDS011;11347;52.030;4.690;2022-08-01T01:30:27;3.87;;;2.60;;
22359;SDS011;11347;52.030;4.690;2022-08-01T01:32:54;3.50;;;2.60;;
22359;SDS011;11347;52.030;4.690;2022-08-01T01:35:25;4.47;;;2.90;;
22359;SDS011;11347;52.030;4.690;2022-08-01T01:37:56;3.70;;;2.63;;
22359;SDS011;11347;52.030;4.690;2022-08-01T01:40:26;4.43;;;2.60;;
22359;SDS011;11347;52.030;4.690;2022-08-01T01:42:54;4.57;;;2.87;;
22359;SDS011;11347;52.030;4.690;2022-08-01T01:45:22;3.83;;;2.57;;
22359;SDS011;11347;52.030;4.690;2022-08-01T01:47:49;3.20;;;2.20;;
22359;SDS011;11347;52.030;4.690;2022-08-01T01:50:15;3.13;;;2.20;;
22359;SDS011;11347;52.030;4.690;2022-08-01T01:52:44;4.10;;;2.23;;
22359;SDS011;11347;52.030;4.690;2022-08-01T01:55:11;3.73;;;2.20;;
22359;SDS011;11347;52.030;4.690;2022-08-01T01:57:38;2.97;;;2.10;;
22359;SDS011;11347;52.030;4.690;2022-08-01T02:00:08;4.57;;;2.33;;
22359;SDS011;11347;52.030;4.690;2022-08-01T02:02:36;3.03;;;1.80;;
22359;SDS011;11347;52.030;4.690;2022-08-01T02:05:02;3.30;;;2.00;;
22359;SDS011;11347;52.030;4.690;2022-08-01T02:07:30;2.90;;;2.10;;
22359;SDS011;11347;52.030;4.690;2022-08-01T02:09:57;2.17;;;1.70;;
22359;SDS011;11347;52.030;4.690;2022-08-01T02:12:26;3.33;;;1.77;;
22359;SDS011;11347;52.030;4.690;2022-08-01T02:14:54;2.40;;;1.80;;
22359;SDS011;11347;52.030;4.690;2022-08-01T02:17:20;3.97;;;1.80;;
22359;SDS011;11347;52.030;4.690;2022-08-01T02:19:48;3.77;;;2.10;;
22359;SDS011;11347;52.030;4.690;2022-08-01T02:25:23;2.30;;;1.57;;
22359;SDS011;11347;52.030;4.690;2022-08-01T02:27:59;2.87;;;1.90;;
22359;SDS011;11347;52.030;4.690;2022-08-01T02:30:33;4.27;;;1.80;;
22359;SDS011;11347;52.030;4.690;2022-08-01T02:33:14;3.20;;;1.27;;
22359;SDS011;11347;52.030;4.690;2022-08-01T02:35:43;2.60;;;1.40;;
22359;SDS011;11347;52.030;4.690;2022-08-01T02:38:12;3.10;;;1.77;;
22359;SDS011;11347;52.030;4.690;2022-08-01T02:40:39;2.47;;;1.53;;
22359;SDS011;11347;52.030;4.690;2022-08-01T02:43:08;3.10;;;1.40;;
22359;SDS011;11347;52.030;4.690;2022-08-01T02:45:37;1.60;;;1.50;;
22359;SDS011;11347;52.030;4.690;2022-08-01T02:48:11;3.20;;;1.60;;
22359;SDS011;11347;52.030;4.690;2022-08-01T02:50:39;1.93;;;1.40;;
22359;SDS011;11347;52.030;4.690;2022-08-01T02:53:07;2.40;;;1.40;;
22359;SDS011;11347;52.030;4.690;2022-08-01T02:55:36;2.67;;;1.50;;
22359;SDS011;11347;52.030;4.690;2022-08-01T02:58:04;1.73;;;1.27;;
22359;SDS011;11347;52.030;4.690;2022-08-01T03:00:31;2.67;;;1.43;;
22359;SDS011;11347;52.030;4.690;2022-08-01T03:02:59;2.43;;;1.60;;
22359;SDS011;11347;52.030;4.690;2022-08-01T03:05:26;2.70;;;1.30;;
22359;SDS011;11347;52.030;4.690;2022-08-01T03:07:53;3.10;;;1.20;;
22359;SDS011;11347;52.030;4.690;2022-08-01T03:10:20;1.83;;;1.20;;
22359;SDS011;11347;52.030;4.690;2022-08-01T03:12:47;2.30;;;1.17;;
22359;SDS011;11347;52.030;4.690;2022-08-01T03:15:15;2.27;;;1.60;;
22359;SDS011;11347;52.030;4.690;2022-08-01T03:17:42;2.60;;;1.20;;
22359;SDS011;11347;52.030;4.690;2022-08-01T03:20:10;1.93;;;1.40;;
22359;SDS011;11347;52.030;4.690;2022-08-01T03:22:39;2.73;;;1.20;;
22359;SDS011;11347;52.030;4.690;2022-08-01T03:25:07;2.93;;;1.30;;
22359;SDS011;11347;52.030;4.690;2022-08-01T03:27:33;2.17;;;1.20;;
22359;SDS011;11347;52.030;4.690;2022-08-01T03:30:02;3.23;;;1.30;;
22359;SDS011;11347;52.030;4.690;2022-08-01T03:32:29;3.07;;;1.20;;
22359;SDS011;11347;52.030;4.690;2022-08-01T03:34:56;3.03;;;1.10;;
22359;SDS011;11347;52.030;4.690;2022-08-01T03:37:26;5.67;;;1.50;;
22359;SDS011;11347;52.030;4.690;2022-08-01T03:40:02;4.30;;;1.40;;
22359;SDS011;11347;52.030;4.690;2022-08-01T03:42:32;1.93;;;1.30;;
22359;SDS011;11347;52.030;4.690;2022-08-01T03:45:04;1.90;;;1.30;;
22359;SDS011;11347;52.030;4.690;2022-08-01T03:47:34;1.73;;;1.00;;
22359;SDS011;11347;52.030;4.690;2022-08-01T03:50:02;2.07;;;1.20;;
22359;SDS011;11347;52.030;4.690;2022-08-01T03:52:29;1.93;;;1.10;;
22359;SDS011;11347;52.030;4.690;2022-08-01T03:54:58;3.30;;;1.20;;
22359;SDS011;11347;52.030;4.690;2022-08-01T03:57:27;2.90;;;1.30;;
22359;SDS011;11347;52.030;4.690;2022-08-01T03:59:55;2.73;;;1.10;;
22359;SDS011;11347;52.030;4.690;2022-08-01T04:02:22;2.50;;;1.03;;
22359;SDS011;11347;52.030;4.690;2022-08-01T04:04:47;3.10;;;1.10;;
22359;SDS011;11347;52.030;4.690;2022-08-01T04:07:24;2.93;;;1.30;;
22359;SDS011;11347;52.030;4.690;2022-08-01T04:09:54;2.67;;;1.20;;
22359;SDS011;11347;52.030;4.690;2022-08-01T04:12:20;1.27;;;1.00;;
22359;SDS011;11347;52.030;4.690;2022-08-01T04:14:46;3.70;;;1.10;;
22359;SDS011;11347;52.030;4.690;2022-08-01T04:17:12;1.93;;;1.10;;
22359;SDS011;11347;52.030;4.690;2022-08-01T04:19:38;1.60;;;1.07;;
22359;SDS011;11347;52.030;4.690;2022-08-01T04:22:04;2.30;;;1.20;;
22359;SDS011;11347;52.030;4.690;2022-08-01T04:24:30;2.40;;;1.23;;
22359;SDS011;11347;52.030;4.690;2022-08-01T04:26:58;2.30;;;1.20;;
22359;SDS011;11347;52.030;4.690;2022-08-01T04:29:26;1.97;;;1.07;;
22359;SDS011;11347;52.030;4.690;2022-08-01T04:31:52;2.60;;;1.20;;
22359;SDS011;11347;52.030;4.690;2022-08-01T04:34:21;1.83;;;1.00;;
22359;SDS011;11347;52.030;4.690;2022-08-01T04:36:51;1.77;;;1.27;;
22359;SDS011;11347;52.030;4.690;2022-08-01T04:39:18;2.37;;;1.33;;
22359;SDS011;11347;52.030;4.690;2022-08-01T04:41:45;1.63;;;1.10;;
22359;SDS011;11347;52.030;4.690;2022-08-01T04:44:12;1.40;;;1.10;;
22359;SDS011;11347;52.030;4.690;2022-08-01T04:46:38;1.40;;;1.07;;
22359;SDS011;11347;52.030;4.690;2022-08-01T04:49:08;1.73;;;1.00;;
22359;SDS011;11347;52.030;4.690;2022-08-01T04:51:36;1.93;;;0.90;;
22359;SDS011;11347;52.030;4.690;2022-08-01T04:54:14;1.40;;;1.00;;
22359;SDS011;11347;52.030;4.690;2022-08-01T04:56:39;2.53;;;0.90;;
22359;SDS011;11347;52.030;4.690;2022-08-01T04:59:06;1.20;;;0.93;;
22359;SDS011;11347;52.030;4.690;2022-08-01T05:01:50;2.00;;;1.00;;
22359;SDS011;11347;52.030;4.690;2022-08-01T05:04:16;1.63;;;0.90;;
22359;SDS011;11347;52.030;4.690;2022-08-01T05:06:41;1.13;;;0.73;;
22359;SDS011;11347;52.030;4.690;2022-08-01T05:09:07;2.30;;;0.87;;
22359;SDS011;11347;52.030;4.690;2022-08-01T05:11:32;1.60;;;1.00;;
22359;SDS011;11347;52.030;4.690;2022-08-01T05:13:58;2.07;;;1.00;;
22359;SDS011;11347;52.030;4.690;2022-08-01T05:16:23;2.83;;;1.10;;
22359;SDS011;11347;52.030;4.690;2022-08-01T05:18:49;2.63;;;1.00;;
22359;SDS011;11347;52.030;4.690;2022-08-01T05:21:14;2.67;;;1.00;;
22359;SDS011;11347;52.030;4.690;2022-08-01T05:23:40;1.43;;;0.80;;
22359;SDS011;11347;52.030;4.690;2022-08-01T05:26:06;2.13;;;0.90;;
22359;SDS011;11347;52.030;4.690;2022-08-01T05:28:31;1.33;;;0.90;;
22359;SDS011;11347;52.030;4.690;2022-08-01T05:30:57;2.23;;;1.00;;
22359;SDS011;11347;52.030;4.690;2022-08-01T05:33:22;1.67;;;0.80;;
22359;SDS011;11347;52.030;4.690;2022-08-01T05:35:48;2.50;;;0.80;;
22359;SDS011;11347;52.030;4.690;2022-08-01T05:38:13;2.10;;;0.70;;
22359;SDS011;11347;52.030;4.690;2022-08-01T05:40:39;1.27;;;0.70;;
22359;SDS011;11347;52.030;4.690;2022-08-01T05:43:04;1.40;;;0.70;;
22359;SDS011;11347;52.030;4.690;2022-08-01T05:45:30;2.50;;;0.77;;
22359;SDS011;11347;52.030;4.690;2022-08-01T05:47:56;1.97;;;0.90;;
22359;SDS011;11347;52.030;4.690;2022-08-01T05:50:21;1.67;;;0.77;;
22359;SDS011;11347;52.030;4.690;2022-08-01T05:52:47;1.27;;;0.80;;
22359;SDS011;11347;52.030;4.690;2022-08-01T05:55:12;1.57;;;0.67;;
22359;SDS011;11347;52.030;4.690;2022-08-01T05:57:38;1.77;;;0.70;;
22359;SDS011;11347;52.030;4.690;2022-08-01T06:00:03;2.43;;;0.70;;
22359;SDS011;11347;52.030;4.690;2022-08-01T06:02:30;2.20;;;0.73;;
22359;SDS011;11347;52.030;4.690;2022-08-01T06:04:55;1.33;;;0.87;;
22359;SDS011;11347;52.030;4.690;2022-08-01T06:07:21;1.17;;;0.70;;
22359;SDS011;11347;52.030;4.690;2022-08-01T06:09:46;1.00;;;0.73;;
22359;SDS011;11347;52.030;4.690;2022-08-01T06:12:12;2.20;;;0.80;;
22359;SDS011;11347;52.030;4.690;2022-08-01T06:14:37;2.37;;;1.20;;
22359;SDS011;11347;52.030;4.690;2022-08-01T06:17:03;1.80;;;0.77;;
22359;SDS011;11347;52.030;4.690;2022-08-01T06:19:29;1.83;;;1.00;;
22359;SDS011;11347;52.030;4.690;2022-08-01T06:21:54;2.50;;;1.07;;
22359;SDS011;11347;52.030;4.690;2022-08-01T06:24:20;1.83;;;1.20;;
22359;SDS011;11347;52.030;4.690;2022-08-01T06:26:47;1.80;;;1.00;;
22359;SDS011;11347;52.030;4.690;2022-08-01T06:29:13;2.47;;;1.20;;
22359;SDS011;11347;52.030;4.690;2022-08-01T06:31:39;2.10;;;1.10;;
22359;SDS011;11347;52.030;4.690;2022-08-01T06:34:04;2.37;;;1.07;;
22359;SDS011;11347;52.030;4.690;2022-08-01T06:36:30;2.70;;;1.20;;
22359;SDS011;11347;52.030;4.690;2022-08-01T06:38:55;3.00;;;1.60;;
22359;SDS011;11347;52.030;4.690;2022-08-01T06:41:21;2.60;;;1.40;;
22359;SDS011;11347;52.030;4.690;2022-08-01T06:43:46;2.73;;;1.50;;
22359;SDS011;11347;52.030;4.690;2022-08-01T06:46:12;3.40;;;1.30;;
22359;SDS011;11347;52.030;4.690;2022-08-01T06:48:38;2.70;;;1.40;;
22359;SDS011;11347;52.030;4.690;2022-08-01T06:51:04;4.10;;;1.70;;
22359;SDS011;11347;52.030;4.690;2022-08-01T06:53:34;3.87;;;1.77;;
22359;SDS011;11347;52.030;4.690;2022-08-01T06:56:03;2.33;;;1.63;;
22359;SDS011;11347;52.030;4.690;2022-08-01T06:58:30;6.33;;;2.10;;
22359;SDS011;11347;52.030;4.690;2022-08-01T07:00:55;7.93;;;2.03;;
22359;SDS011;11347;52.030;4.690;2022-08-01T07:03:21;7.40;;;2.00;;
22359;SDS011;11347;52.030;4.690;2022-08-01T07:05:47;7.07;;;1.77;;
22359;SDS011;11347;52.030;4.690;2022-08-01T07:08:12;6.10;;;2.17;;
22359;SDS011;11347;52.030;4.690;2022-08-01T07:10:38;10.43;;;2.43;;
22359;SDS011;11347;52.030;4.690;2022-08-01T07:13:03;10.90;;;2.40;;
22359;SDS011;11347;52.030;4.690;2022-08-01T07:15:29;6.77;;;2.10;;
22359;SDS011;11347;52.030;4.690;2022-08-01T07:17:54;9.53;;;2.03;;
22359;SDS011;11347;52.030;4.690;2022-08-01T07:20:21;6.03;;;2.13;;
22359;SDS011;11347;52.030;4.690;2022-08-01T07:22:47;6.10;;;2.03;;
22359;SDS011;11347;52.030;4.690;2022-08-01T07:25:13;7.80;;;2.13;;
22359;SDS011;11347;52.030;4.690;2022-08-01T07:27:38;6.87;;;1.80;;
22359;SDS011;11347;52.030;4.690;2022-08-01T07:30:04;7.97;;;2.00;;
22359;SDS011;11347;52.030;4.690;2022-08-01T07:32:30;7.40;;;2.17;;
22359;SDS011;11347;52.030;4.690;2022-08-01T07:34:56;8.80;;;2.17;;
22359;SDS011;11347;52.030;4.690;2022-08-01T07:37:22;4.70;;;1.50;;
22359;SDS011;11347;52.030;4.690;2022-08-01T07:39:48;7.87;;;1.70;;
22359;SDS011;11347;52.030;4.690;2022-08-01T07:42:14;6.03;;;1.80;;
22359;SDS011;11347;52.030;4.690;2022-08-01T07:44:40;6.67;;;1.80;;
22359;SDS011;11347;52.030;4.690;2022-08-01T07:47:05;7.67;;;1.90;;
22359;SDS011;11347;52.030;4.690;2022-08-01T07:49:31;6.27;;;1.70;;
22359;SDS011;11347;52.030;4.690;2022-08-01T07:51:57;7.20;;;1.90;;
22359;SDS011;11347;52.030;4.690;2022-08-01T07:54:23;6.43;;;1.47;;
22359;SDS011;11347;52.030;4.690;2022-08-01T07:56:52;7.00;;;1.53;;
22359;SDS011;11347;52.030;4.690;2022-08-01T07:59:18;9.00;;;1.80;;
22359;SDS011;11347;52.030;4.690;2022-08-01T08:01:47;8.77;;;1.70;;
22359;SDS011;11347;52.030;4.690;2022-08-01T08:04:14;10.90;;;2.17;;
22359;SDS011;11347;52.030;4.690;2022-08-01T08:06:40;7.57;;;1.80;;
22359;SDS011;11347;52.030;4.690;2022-08-01T08:09:06;8.17;;;2.33;;
22359;SDS011;11347;52.030;4.690;2022-08-01T08:11:31;7.37;;;2.07;;
22359;SDS011;11347;52.030;4.690;2022-08-01T08:13:57;7.83;;;1.60;;
22359;SDS011;11347;52.030;4.690;2022-08-01T08:16:23;4.97;;;1.53;;
22359;SDS011;11347;52.030;4.690;2022-08-01T08:18:48;8.10;;;1.90;;
22359;SDS011;11347;52.030;4.690;2022-08-01T08:21:14;7.20;;;1.57;;
22359;SDS011;11347;52.030;4.690;2022-08-01T08:23:39;6.00;;;1.40;;
22359;SDS011;11347;52.030;4.690;2022-08-01T08:26:24;7.93;;;1.93;;
22359;SDS011;11347;52.030;4.690;2022-08-01T08:28:50;7.70;;;1.60;;
22359;SDS011;11347;52.030;4.690;2022-08-01T08:31:15;8.07;;;1.70;;
22359;SDS011;11347;52.030;4.690;2022-08-01T08:33:41;7.93;;;1.67;;
22359;SDS011;11347;52.030;4.690;2022-08-01T08:36:06;5.70;;;1.70;;
22359;SDS011;11347;52.030;4.690;2022-08-01T08:38:33;7.27;;;1.50;;
22359;SDS011;11347;52.030;4.690;2022-08-01T08:40:59;6.87;;;1.67;;
22359;SDS011;11347;52.030;4.690;2022-08-01T08:43:24;9.63;;;1.73;;
22359;SDS011;11347;52.030;4.690;2022-08-01T08:45:51;9.57;;;1.63;;
22359;SDS011;11347;52.030;4.690;2022-08-01T08:48:17;8.53;;;1.70;;
22359;SDS011;11347;52.030;4.690;2022-08-01T08:50:43;8.37;;;1.93;;
22359;SDS011;11347;52.030;4.690;2022-08-01T08:53:12;7.83;;;1.70;;
22359;SDS011;11347;52.030;4.690;2022-08-01T08:55:40;6.67;;;1.67;;
22359;SDS011;11347;52.030;4.690;2022-08-01T08:58:10;8.47;;;1.53;;
22359;SDS011;11347;52.030;4.690;2022-08-01T09:00:41;7.33;;;1.43;;
22359;SDS011;11347;52.030;4.690;2022-08-01T09:03:06;6.17;;;1.67;;
22359;SDS011;11347;52.030;4.690;2022-08-01T09:05:32;6.97;;;1.37;;
22359;SDS011;11347;52.030;4.690;2022-08-01T09:07:58;7.63;;;1.60;;
22359;SDS011;11347;52.030;4.690;2022-08-01T09:10:24;5.17;;;1.20;;
22359;SDS011;11347;52.030;4.690;2022-08-01T09:15:48;6.87;;;1.37;;
22359;SDS011;11347;52.030;4.690;2022-08-01T09:23:47;7.40;;;1.77;;
22359;SDS011;11347;52.030;4.690;2022-08-01T09:26:18;6.17;;;1.27;;
22359;SDS011;11347;52.030;4.690;2022-08-01T09:28:56;4.53;;;1.17;;
22359;SDS011;11347;52.030;4.690;2022-08-01T09:31:22;6.60;;;1.40;;
22359;SDS011;11347;52.030;4.690;2022-08-01T09:34:01;7.37;;;1.40;;
22359;SDS011;11347;52.030;4.690;2022-08-01T09:39:20;5.37;;;1.20;;
22359;SDS011;11347;52.030;4.690;2022-08-01T09:41:47;5.30;;;1.40;;
22359;SDS011;11347;52.030;4.690;2022-08-01T09:44:13;5.63;;;1.20;;
22359;SDS011;11347;52.030;4.690;2022-08-01T09:46:49;6.67;;;1.50;;
22359;SDS011;11347;52.030;4.690;2022-08-01T09:49:26;8.83;;;1.50;;
22359;SDS011;11347;52.030;4.690;2022-08-01T09:51:58;4.77;;;1.20;;
22359;SDS011;11347;52.030;4.690;2022-08-01T09:54:31;6.93;;;1.50;;
22359;SDS011;11347;52.030;4.690;2022-08-01T09:57:12;3.50;;;1.20;;
22359;SDS011;11347;52.030;4.690;2022-08-01T09:59:42;7.50;;;1.40;;
22359;SDS011;11347;52.030;4.690;2022-08-01T10:02:10;6.13;;;1.20;;
22359;SDS011;11347;52.030;4.690;2022-08-01T10:04:49;7.13;;;1.53;;
22359;SDS011;11347;52.030;4.690;2022-08-01T10:07:16;7.40;;;1.73;;
22359;SDS011;11347;52.030;4.690;2022-08-01T10:09:42;6.00;;;1.70;;
22359;SDS011;11347;52.030;4.690;2022-08-01T10:12:09;7.17;;;1.57;;
22359;SDS011;11347;52.030;4.690;2022-08-01T10:14:36;5.93;;;1.40;;
22359;SDS011;11347;52.030;4.690;2022-08-01T10:17:03;8.70;;;1.40;;
22359;SDS011;11347;52.030;4.690;2022-08-01T10:19:31;7.10;;;1.30;;
22359;SDS011;11347;52.030;4.690;2022-08-01T10:21:57;6.60;;;1.30;;
22359;SDS011;11347;52.030;4.690;2022-08-01T10:24:24;9.33;;;1.70;;
22359;SDS011;11347;52.030;4.690;2022-08-01T10:26:51;5.03;;;1.40;;
22359;SDS011;11347;52.030;4.690;2022-08-01T10:29:23;9.27;;;1.40;;
22359;SDS011;11347;52.030;4.690;2022-08-01T10:31:51;7.63;;;1.50;;
22359;SDS011;11347;52.030;4.690;2022-08-01T10:34:17;9.53;;;1.60;;
22359;SDS011;11347;52.030;4.690;2022-08-01T10:36:45;7.03;;;1.43;;
22359;SDS011;11347;52.030;4.690;2022-08-01T10:39:11;6.37;;;1.43;;
22359;SDS011;11347;52.030;4.690;2022-08-01T10:41:40;6.93;;;1.50;;
22359;SDS011;11347;52.030;4.690;2022-08-01T10:44:07;8.17;;;1.60;;
22359;SDS011;11347;52.030;4.690;2022-08-01T10:46:40;8.93;;;1.60;;
22359;SDS011;11347;52.030;4.690;2022-08-01T10:49:12;7.10;;;1.57;;
22359;SDS011;11347;52.030;4.690;2022-08-01T10:51:40;6.03;;;1.40;;
22359;SDS011;11347;52.030;4.690;2022-08-01T10:54:07;8.23;;;1.50;;
22359;SDS011;11347;52.030;4.690;2022-08-01T10:56:42;10.10;;;1.87;;
22359;SDS011;11347;52.030;4.690;2022-08-01T10:59:25;8.70;;;1.67;;
22359;SDS011;11347;52.030;4.690;2022-08-01T11:02:00;7.53;;;1.43;;
22359;SDS011;11347;52.030;4.690;2022-08-01T11:07:07;6.23;;;1.47;;
22359;SDS011;11347;52.030;4.690;2022-08-01T11:09:40;6.20;;;1.13;;
22359;SDS011;11347;52.030;4.690;2022-08-01T11:15:15;9.70;;;2.23;;
22359;SDS011;11347;52.030;4.690;2022-08-01T11:20:09;6.50;;;1.37;;
22359;SDS011;11347;52.030;4.690;2022-08-01T11:30:39;7.33;;;1.40;;
22359;SDS011;11347;52.030;4.690;2022-08-01T11:33:15;6.23;;;1.80;;
22359;SDS011;11347;52.030;4.690;2022-08-01T11:38:43;10.40;;;1.67;;
22359;SDS011;11347;52.030;4.690;2022-08-01T11:57:10;7.07;;;1.60;;
22359;SDS011;11347;52.030;4.690;2022-08-01T11:59:56;5.87;;;1.57;;
22359;SDS011;11347;52.030;4.690;2022-08-01T12:02:24;7.77;;;1.70;;
22359;SDS011;11347;52.030;4.690;2022-08-01T12:04:57;7.33;;;1.70;;
22359;SDS011;11347;52.030;4.690;2022-08-01T12:07:28;9.17;;;1.60;;
22359;SDS011;11347;52.030;4.690;2022-08-01T12:12:25;6.83;;;1.50;;
22359;SDS011;11347;52.030;4.690;2022-08-01T12:14:52;5.53;;;1.60;;
22359;SDS011;11347;52.030;4.690;2022-08-01T12:17:34;6.37;;;1.50;;
22359;SDS011;11347;52.030;4.690;2022-08-01T12:20:03;6.73;;;1.57;;
22359;SDS011;11347;52.030;4.690;2022-08-01T12:22:31;6.37;;;1.57;;
22359;SDS011;11347;52.030;4.690;2022-08-01T12:25:04;4.97;;;1.20;;
22359;SDS011;11347;52.030;4.690;2022-08-01T12:27:35;3.93;;;1.20;;
22359;SDS011;11347;52.030;4.690;2022-08-01T12:30:02;6.63;;;1.70;;
22359;SDS011;11347;52.030;4.690;2022-08-01T12:32:31;7.13;;;1.40;;
22359;SDS011;11347;52.030;4.690;2022-08-01T12:37:57;6.03;;;1.30;;
22359;SDS011;11347;52.030;4.690;2022-08-01T12:40:28;5.63;;;1.33;;
22359;SDS011;11347;52.030;4.690;2022-08-01T12:42:59;6.70;;;1.73;;
22359;SDS011;11347;52.030;4.690;2022-08-01T12:45:28;4.80;;;1.27;;
22359;SDS011;11347;52.030;4.690;2022-08-01T12:47:57;6.07;;;1.20;;
22359;SDS011;11347;52.030;4.690;2022-08-01T12:50:25;4.23;;;1.30;;
22359;SDS011;11347;52.030;4.690;2022-08-01T12:52:55;6.30;;;1.30;;
22359;SDS011;11347;52.030;4.690;2022-08-01T12:55:25;7.00;;;1.43;;
22359;SDS011;11347;52.030;4.690;2022-08-01T12:58:05;6.13;;;1.20;;
22359;SDS011;11347;52.030;4.690;2022-08-01T13:00:33;6.40;;;1.43;;
22359;SDS011;11347;52.030;4.690;2022-08-01T13:03:03;4.33;;;1.10;;
22359;SDS011;11347;52.030;4.690;2022-08-01T13:05:44;6.47;;;2.13;;
22359;SDS011;11347;52.030;4.690;2022-08-01T13:08:16;9.07;;;1.60;;
22359;SDS011;11347;52.030;4.690;2022-08-01T13:10:46;5.83;;;1.40;;
22359;SDS011;11347;52.030;4.690;2022-08-01T13:13:13;4.40;;;1.30;;
22359;SDS011;11347;52.030;4.690;2022-08-01T13:15:41;6.57;;;1.33;;
22359;SDS011;11347;52.030;4.690;2022-08-01T13:18:26;6.57;;;1.30;;
22359;SDS011;11347;52.030;4.690;2022-08-01T13:21:10;5.97;;;1.20;;
22359;SDS011;11347;52.030;4.690;2022-08-01T13:23:37;10.70;;;1.47;;
22359;SDS011;11347;52.030;4.690;2022-08-01T13:26:04;3.90;;;1.27;;
22359;SDS011;11347;52.030;4.690;2022-08-01T13:28:29;5.47;;;1.23;;
22359;SDS011;11347;52.030;4.690;2022-08-01T13:31:01;6.70;;;1.70;;
22359;SDS011;11347;52.030;4.690;2022-08-01T13:33:41;3.83;;;0.97;;
22359;SDS011;11347;52.030;4.690;2022-08-01T13:36:08;4.17;;;1.33;;
22359;SDS011;11347;52.030;4.690;2022-08-01T13:38:34;6.63;;;1.30;;
22359;SDS011;11347;52.030;4.690;2022-08-01T13:41:19;7.57;;;1.50;;
22359;SDS011;11347;52.030;4.690;2022-08-01T13:43:44;4.67;;;1.40;;
22359;SDS011;11347;52.030;4.690;2022-08-01T13:46:10;3.83;;;1.10;;
22359;SDS011;11347;52.030;4.690;2022-08-01T13:48:35;5.00;;;1.03;;
22359;SDS011;11347;52.030;4.690;2022-08-01T13:51:01;3.47;;;1.17;;
22359;SDS011;11347;52.030;4.690;2022-08-01T13:53:27;4.93;;;1.20;;
22359;SDS011;11347;52.030;4.690;2022-08-01T13:55:53;3.43;;;1.00;;
22359;SDS011;11347;52.030;4.690;2022-08-01T13:58:18;4.53;;;1.07;;
22359;SDS011;11347;52.030;4.690;2022-08-01T14:00:44;5.67;;;1.27;;
22359;SDS011;11347;52.030;4.690;2022-08-01T14:03:10;5.30;;;1.13;;
22359;SDS011;11347;52.030;4.690;2022-08-01T14:05:36;6.50;;;1.20;;
22359;SDS011;11347;52.030;4.690;2022-08-01T14:08:02;6.40;;;1.40;;
22359;SDS011;11347;52.030;4.690;2022-08-01T14:10:28;5.43;;;1.10;;
22359;SDS011;11347;52.030;4.690;2022-08-01T14:12:57;5.40;;;1.40;;
22359;SDS011;11347;52.030;4.690;2022-08-01T14:15:23;4.43;;;1.10;;
22359;SDS011;11347;52.030;4.690;2022-08-01T14:17:49;5.60;;;1.10;;
22359;SDS011;11347;52.030;4.690;2022-08-01T14:20:15;4.70;;;1.70;;
22359;SDS011;11347;52.030;4.690;2022-08-01T14:22:44;4.67;;;1.30;;
22359;SDS011;11347;52.030;4.690;2022-08-01T14:25:10;4.30;;;1.00;;
22359;SDS011;11347;52.030;4.690;2022-08-01T14:27:36;4.40;;;1.40;;
22359;SDS011;11347;52.030;4.690;2022-08-01T14:30:02;5.97;;;1.20;;
22359;SDS011;11347;52.030;4.690;2022-08-01T14:32:28;3.07;;;1.00;;
22359;SDS011;11347;52.030;4.690;2022-08-01T14:34:55;5.73;;;1.20;;
22359;SDS011;11347;52.030;4.690;2022-08-01T14:37:21;6.57;;;1.40;;
22359;SDS011;11347;52.030;4.690;2022-08-01T14:39:47;6.40;;;1.23;;
22359;SDS011;11347;52.030;4.690;2022-08-01T14:42:12;3.43;;;1.00;;
22359;SDS011;11347;52.030;4.690;2022-08-01T14:44:38;5.13;;;1.20;;
22359;SDS011;11347;52.030;4.690;2022-08-01T14:47:04;4.43;;;1.03;;
22359;SDS011;11347;52.030;4.690;2022-08-01T14:49:29;4.47;;;1.10;;
22359;SDS011;11347;52.030;4.690;2022-08-01T14:51:55;5.07;;;1.13;;
22359;SDS011;11347;52.030;4.690;2022-08-01T14:54:21;5.73;;;1.20;;
22359;SDS011;11347;52.030;4.690;2022-08-01T14:56:46;5.23;;;1.20;;
22359;SDS011;11347;52.030;4.690;2022-08-01T14:59:12;5.50;;;1.27;;
22359;SDS011;11347;52.030;4.690;2022-08-01T15:01:37;3.43;;;1.00;;
22359;SDS011;11347;52.030;4.690;2022-08-01T15:04:03;6.20;;;1.30;;
22359;SDS011;11347;52.030;4.690;2022-08-01T15:06:28;4.93;;;1.20;;
22359;SDS011;11347;52.030;4.690;2022-08-01T15:08:54;6.07;;;1.20;;
22359;SDS011;11347;52.030;4.690;2022-08-01T15:11:20;7.03;;;1.50;;
22359;SDS011;11347;52.030;4.690;2022-08-01T15:13:45;5.50;;;1.40;;
22359;SDS011;11347;52.030;4.690;2022-08-01T15:16:31;4.67;;;1.00;;
22359;SDS011;11347;52.030;4.690;2022-08-01T15:18:56;5.27;;;1.17;;
22359;SDS011;11347;52.030;4.690;2022-08-01T15:21:22;5.37;;;1.10;;
22359;SDS011;11347;52.030;4.690;2022-08-01T15:23:47;5.43;;;1.30;;
22359;SDS011;11347;52.030;4.690;2022-08-01T15:26:13;6.97;;;1.40;;
22359;SDS011;11347;52.030;4.690;2022-08-01T15:28:39;4.97;;;1.17;;
22359;SDS011;11347;52.030;4.690;2022-08-01T15:31:04;5.27;;;1.27;;
22359;SDS011;11347;52.030;4.690;2022-08-01T15:33:30;3.77;;;1.10;;
22359;SDS011;11347;52.030;4.690;2022-08-01T15:35:55;3.77;;;1.27;;
22359;SDS011;11347;52.030;4.690;2022-08-01T15:38:21;4.17;;;1.23;;
22359;SDS011;11347;52.030;4.690;2022-08-01T15:40:46;4.03;;;1.30;;
22359;SDS011;11347;52.030;4.690;2022-08-01T15:43:12;6.87;;;1.50;;
22359;SDS011;11347;52.030;4.690;2022-08-01T15:45:38;3.63;;;1.10;;
22359;SDS011;11347;52.030;4.690;2022-08-01T15:48:03;7.37;;;1.30;;
22359;SDS011;11347;52.030;4.690;2022-08-01T15:50:29;6.30;;;1.30;;
22359;SDS011;11347;52.030;4.690;2022-08-01T15:52:55;5.33;;;0.90;;
22359;SDS011;11347;52.030;4.690;2022-08-01T15:55:20;7.00;;;1.23;;
22359;SDS011;11347;52.030;4.690;2022-08-01T15:57:46;2.67;;;1.17;;